Time;durP1;ratioP1;P1;durP2;ratioP2;P2;SDS_P1;SDS_P2;PMS_P1;PMS_P2;Temp;Humidity;BMP_temperature;BMP_pressure;BME280_temperature;BME280_humidity;BME280_pressure;Samples;Min_cycle;Max_cycle;Signal;HPM_P1;HPM_P2
2020/12/22 00:00:10;;;;;;;11.95;8.38;;;;;;;-2.92;77.68;101155.48;1724740;82;21807;-59
2020/12/22 00:02:44;;;;;;;11.25;8.35;;;;;;;-2.88;77.60;101158.20;1729626;82;21704;-60
2020/12/22 00:05:13;;;;;;;11.95;8.40;;;;;;;-2.94;77.84;101154.81;1719209;82;21113;-60
2020/12/22 00:07:40;;;;;;;11.15;8.58;;;;;;;-2.97;78.02;101158.59;1720982;82;21141;-60
2020/12/22 00:10:10;;;;;;;11.65;8.93;;;;;;;-2.98;77.96;101158.77;1686266;83;21319;-59
2020/12/22 00:12:40;;;;;;;14.05;9.30;;;;;;;-2.97;77.96;101147.94;1720679;82;21149;-59
2020/12/22 00:15:08;;;;;;;13.10;9.33;;;;;;;-2.97;78.13;101159.92;1691662;83;21188;-59
2020/12/22 00:17:39;;;;;;;14.35;9.90;;;;;;;-2.96;77.99;101154.95;1657155;86;21629;-60
2020/12/22 00:20:06;;;;;;;14.85;10.80;;;;;;;-2.93;78.03;101146.65;1719224;82;21157;-59
2020/12/22 00:22:33;;;;;;;12.58;10.08;;;;;;;-2.95;77.98;101149.97;1719243;83;21574;-60
2020/12/22 00:25:01;;;;;;;14.98;11.08;;;;;;;-3.02;77.99;101141.75;1719135;82;21637;-59
2020/12/22 00:27:32;;;;;;;14.95;9.93;;;;;;;-3.04;77.97;101145.53;1738488;82;21178;-60
2020/12/22 00:29:57;;;;;;;14.38;10.23;;;;;;;-3.08;78.04;101145.48;1671987;86;21330;-59
2020/12/22 00:32:24;;;;;;;14.07;9.98;;;;;;;-3.11;78.03;101142.63;1719322;82;21181;-60
2020/12/22 00:34:52;;;;;;;14.03;10.45;;;;;;;-3.06;78.17;101144.36;1735272;82;21153;-60
2020/12/22 00:37:19;;;;;;;14.03;10.60;;;;;;;-3.03;78.19;101139.22;1745595;82;21149;-60
2020/12/22 00:39:46;;;;;;;14.25;10.53;;;;;;;-3.02;78.07;101135.58;1748234;81;21189;-59
2020/12/22 00:42:14;;;;;;;14.73;11.25;;;;;;;-3.01;78.19;101132.74;1743685;82;21561;-59
2020/12/22 00:44:41;;;;;;;13.78;10.23;;;;;;;-2.96;78.08;101138.12;1727273;82;21189;-60
2020/12/22 00:47:09;;;;;;;15.88;11.60;;;;;;;-2.93;78.11;101135.15;1724892;82;21188;-59
2020/12/22 00:49:37;;;;;;;17.80;11.90;;;;;;;-2.88;78.16;101137.72;1691177;83;21185;-59
2020/12/22 00:52:04;;;;;;;15.40;10.88;;;;;;;-2.85;78.28;101123.25;1692355;83;21809;-59
2020/12/22 00:54:32;;;;;;;17.60;12.13;;;;;;;-2.84;78.08;101125.78;1705836;82;21132;-59
2020/12/22 00:56:59;;;;;;;19.60;14.25;;;;;;;-2.86;78.01;101125.56;1673234;83;21165;-59
2020/12/22 00:59:28;;;;;;;20.70;14.33;;;;;;;-2.89;77.97;101133.38;1694722;83;21209;-59
2020/12/22 01:01:56;;;;;;;21.15;13.68;;;;;;;-2.92;78.20;101128.34;1715184;82;21987;-60
2020/12/22 01:04:23;;;;;;;21.62;14.20;;;;;;;-2.96;78.41;101126.97;1750889;82;21538;-59
2020/12/22 01:06:50;;;;;;;27.73;17.40;;;;;;;-2.96;78.53;101128.30;1747988;82;21105;-59
2020/12/22 01:09:18;;;;;;;32.20;19.02;;;;;;;-3.02;78.69;101124.92;1719915;82;21276;-59
2020/12/22 01:11:45;;;;;;;31.45;20.50;;;;;;;-3.13;78.70;101107.81;1707126;82;21190;-59
2020/12/22 01:14:15;;;;;;;28.75;18.77;;;;;;;-2.98;78.75;101132.96;1699828;82;21165;-59
2020/12/22 01:16:43;;;;;;;31.23;18.95;;;;;;;-2.96;78.85;101132.80;1740412;82;21168;-59
2020/12/22 01:19:10;;;;;;;31.77;19.20;;;;;;;-2.94;78.91;101130.83;1698233;83;21141;-59
2020/12/22 01:21:37;;;;;;;35.13;20.50;;;;;;;-2.92;79.05;101132.84;1696138;82;21138;-59
2020/12/22 01:24:05;;;;;;;38.50;20.43;;;;;;;-2.94;78.76;101128.17;1747312;80;21579;-59
2020/12/22 01:26:32;;;;;;;34.03;19.27;;;;;;;-2.94;78.63;101132.97;1705768;82;21593;-59
2020/12/22 01:28:59;;;;;;;41.20;22.42;;;;;;;-2.98;78.30;101124.97;1720208;82;21299;-60
2020/12/22 01:31:28;;;;;;;41.40;22.90;;;;;;;-2.97;78.37;101119.12;1707005;82;21149;-59
2020/12/22 01:33:57;;;;;;;38.58;21.55;;;;;;;-3.01;78.47;101121.25;1744399;82;21696;-59
2020/12/22 01:36:25;;;;;;;44.18;23.32;;;;;;;-2.97;78.51;101123.11;1724788;82;21345;-60
2020/12/22 01:38:53;;;;;;;36.13;21.27;;;;;;;-2.96;78.27;101120.80;1697959;82;21121;-59
2020/12/22 01:41:21;;;;;;;34.40;20.35;;;;;;;-2.96;78.08;101117.64;1709599;82;21228;-60
2020/12/22 01:44:08;;;;;;;33.85;21.12;;;;;;;-3.02;77.84;101122.26;1734480;82;21905;-60
2020/12/22 01:46:42;;;;;;;38.45;22.65;;;;;;;-3.03;77.86;101119.23;1641982;83;21613;-59
2020/12/22 01:49:23;;;;;;;38.05;22.70;;;;;;;-3.03;78.09;101125.90;1721094;82;21110;-60
2020/12/22 01:51:52;;;;;;;33.78;18.02;;;;;;;-3.01;78.14;101123.91;1697516;82;21157;-59
2020/12/22 01:54:20;;;;;;;34.98;20.50;;;;;;;-2.99;78.21;101130.44;1719338;82;21141;-59
2020/12/22 01:56:47;;;;;;;32.67;19.90;;;;;;;-3.03;78.13;101119.23;1730365;81;21121;-59
2020/12/22 01:59:17;;;;;;;34.80;19.70;;;;;;;-3.02;78.21;101112.94;1741809;82;21137;-60
2020/12/22 02:01:45;;;;;;;34.90;20.43;;;;;;;-2.99;78.16;101108.63;1743214;81;21284;-59
2020/12/22 02:04:12;;;;;;;27.05;17.52;;;;;;;-2.97;78.29;101111.97;1730612;82;21149;-60
2020/12/22 02:06:40;;;;;;;27.52;16.82;;;;;;;-2.98;78.28;101117.47;1738761;82;21181;-59
2020/12/22 02:09:10;;;;;;;28.05;16.10;;;;;;;-2.99;77.87;101101.13;1719259;82;21146;-60
2020/12/22 02:11:39;;;;;;;24.45;14.85;;;;;;;-2.98;78.07;101100.14;1732430;82;21160;-60
2020/12/22 02:14:09;;;;;;;25.55;14.95;;;;;;;-3.15;78.07;101087.97;1694553;84;21529;-59
2020/12/22 02:16:37;;;;;;;23.73;15.00;;;;;;;-2.97;77.96;101100.47;1671238;84;21222;-61
2020/12/22 02:19:06;;;;;;;20.82;13.78;;;;;;;-2.98;78.09;101099.66;1662619;84;21201;-60
2020/12/22 02:21:34;;;;;;;21.68;13.25;;;;;;;-2.96;77.99;101097.66;1679558;84;21173;-59
2020/12/22 02:24:01;;;;;;;19.73;12.18;;;;;;;-2.93;77.81;101100.02;1631252;84;21169;-59
2020/12/22 02:26:28;;;;;;;17.73;11.55;;;;;;;-2.96;77.74;101104.33;1659235;84;21199;-59
2020/12/22 02:28:56;;;;;;;18.23;11.38;;;;;;;-2.99;77.65;101101.13;1694846;84;21159;-60
2020/12/22 02:31:24;;;;;;;17.15;11.00;;;;;;;-2.97;77.80;101100.47;1700562;84;21188;-60
2020/12/22 02:33:54;;;;;;;15.43;9.80;;;;;;;-2.98;77.92;101090.82;1693552;84;21169;-60
2020/12/22 02:36:22;;;;;;;15.03;10.78;;;;;;;-2.99;77.79;101087.31;1698827;84;21708;-60
2020/12/22 02:38:49;;;;;;;14.75;9.95;;;;;;;-2.96;77.84;101090.16;1699914;83;21153;-60
2020/12/22 02:41:17;;;;;;;15.10;10.38;;;;;;;-2.97;77.45;101092.47;1625328;86;21785;-60
2020/12/22 02:43:44;;;;;;;12.50;8.88;;;;;;;-2.97;77.47;101085.32;1683520;84;21604;-60
2020/12/22 02:46:12;;;;;;;14.90;10.20;;;;;;;-2.93;77.55;101085.36;1694051;83;21191;-59
2020/12/22 02:48:39;;;;;;;14.25;9.43;;;;;;;-2.93;77.33;101079.19;1689337;83;21592;-60
2020/12/22 02:51:06;;;;;;;12.63;9.35;;;;;;;-2.93;77.23;101078.70;1692745;83;21612;-59
2020/12/22 02:53:34;;;;;;;10.72;8.13;;;;;;;-2.94;77.37;101087.67;1694631;84;21163;-60
2020/12/22 02:56:01;;;;;;;14.40;9.15;;;;;;;-2.94;77.31;101078.88;1667820;83;21805;-59
2020/12/22 02:58:28;;;;;;;12.95;8.90;;;;;;;-2.98;77.36;101074.84;1669757;84;21199;-59
2020/12/22 03:00:56;;;;;;;10.80;7.85;;;;;;;-2.97;77.58;101080.48;1695278;84;21211;-59
2020/12/22 03:03:23;;;;;;;12.47;8.98;;;;;;;-2.96;77.50;101073.69;1693718;84;21186;-59
2020/12/22 03:05:50;;;;;;;13.55;9.30;;;;;;;-2.94;77.51;101078.35;1653224;84;21666;-59
2020/12/22 03:08:18;;;;;;;11.38;8.03;;;;;;;-2.91;77.50;101071.91;1642345;84;21298;-59
2020/12/22 03:10:46;;;;;;;11.78;8.23;;;;;;;-2.87;77.46;101075.42;1695390;84;21163;-59
2020/12/22 03:13:14;;;;;;;11.85;8.15;;;;;;;-2.84;77.29;101072.48;1644235;84;21686;-59
2020/12/22 03:15:41;;;;;;;13.38;9.18;;;;;;;-2.87;77.20;101067.95;1691000;83;21204;-59
2020/12/22 03:18:08;;;;;;;11.35;8.35;;;;;;;-2.81;77.29;101071.33;1695500;83;21188;-60
2020/12/22 03:20:35;;;;;;;11.00;8.00;;;;;;;-2.79;77.29;101073.33;1695378;84;21180;-59
2020/12/22 03:23:03;;;;;;;11.30;8.50;;;;;;;-2.75;77.20;101070.70;1665925;83;21286;-60
2020/12/22 03:25:30;;;;;;;13.10;9.48;;;;;;;-2.78;77.18;101077.19;1719071;83;21180;-59
2020/12/22 03:27:57;;;;;;;11.83;8.73;;;;;;;-2.73;77.13;101077.55;1679837;84;21544;-60
2020/12/22 03:30:25;;;;;;;12.45;8.60;;;;;;;-2.75;77.19;101075.54;1669655;84;21164;-59
2020/12/22 03:32:52;;;;;;;14.03;9.65;;;;;;;-2.72;76.93;101079.23;1667928;84;21718;-59
2020/12/22 03:35:19;;;;;;;13.50;8.70;;;;;;;-2.75;76.70;101076.88;1674759;83;21679;-60
2020/12/22 03:37:47;;;;;;;13.00;9.20;;;;;;;-2.76;76.76;101077.86;1664621;86;21177;-59
2020/12/22 03:40:14;;;;;;;13.22;9.05;;;;;;;-2.72;76.90;101076.56;1663185;86;21815;-59
2020/12/22 03:42:41;;;;;;;13.25;9.00;;;;;;;-2.74;76.95;101073.72;1665219;84;21738;-60
2020/12/22 03:45:09;;;;;;;12.58;7.78;;;;;;;-2.77;76.82;101068.20;1646397;84;21182;-59
2020/12/22 03:47:36;;;;;;;12.23;7.80;;;;;;;-2.73;77.02;101073.55;1698351;84;21554;-60
2020/12/22 03:50:05;;;;;;;11.97;8.73;;;;;;;-2.77;77.03;101068.70;1665241;84;21273;-59
2020/12/22 03:52:33;;;;;;;11.95;8.08;;;;;;;-2.74;77.16;101070.56;1672801;84;21177;-60
2020/12/22 03:55:00;;;;;;;9.28;7.10;;;;;;;-2.75;77.19;101071.55;1683149;84;21129;-59
2020/12/22 03:57:27;;;;;;;10.05;7.30;;;;;;;-2.77;77.05;101056.22;1644100;85;21577;-60
2020/12/22 03:59:54;;;;;;;10.35;8.10;;;;;;;-2.77;76.86;101061.55;1644240;84;21323;-59
2020/12/22 04:02:21;;;;;;;11.03;7.78;;;;;;;-2.77;76.91;101056.70;1641827;86;21173;-59
2020/12/22 04:04:49;;;;;;;13.00;8.70;;;;;;;-2.77;76.98;101062.03;1683850;84;21617;-60
2020/12/22 04:07:16;;;;;;;14.63;9.15;;;;;;;-2.75;77.12;101061.38;1688477;82;21169;-60
2020/12/22 04:09:43;;;;;;;13.48;8.38;;;;;;;-2.76;77.20;101064.53;1717466;82;21558;-60
2020/12/22 04:12:11;;;;;;;11.33;8.35;;;;;;;-2.74;77.20;101063.05;1708668;82;22053;-60
2020/12/22 04:14:41;;;;;;;19.92;13.08;;;;;;;-2.77;77.06;101058.03;1628985;85;21578;-59
2020/12/22 04:17:09;;;;;;;62.30;32.67;;;;;;;-2.74;77.20;101057.23;1645734;86;21303;-59
2020/12/22 04:19:36;;;;;;;17.82;11.28;;;;;;;-2.75;77.15;101056.04;1691206;83;21558;-60
2020/12/22 04:22:04;;;;;;;14.70;10.15;;;;;;;-2.76;77.00;101057.87;1687710;82;22155;-60
2020/12/22 04:24:31;;;;;;;15.72;11.28;;;;;;;-2.74;77.07;101056.39;1729985;82;21153;-60
2020/12/22 04:26:58;;;;;;;27.98;20.15;;;;;;;-2.70;77.13;101065.77;1697224;82;21183;-60
2020/12/22 04:29:25;;;;;;;16.67;10.90;;;;;;;-2.69;77.20;101059.41;1727946;82;21541;-59
2020/12/22 04:31:53;;;;;;;14.35;9.88;;;;;;;-2.69;77.23;101057.59;1746335;82;21146;-59
2020/12/22 04:34:20;;;;;;;12.45;8.85;;;;;;;-2.62;77.11;101056.47;1710868;82;21114;-59
2020/12/22 04:36:48;;;;;;;13.18;8.38;;;;;;;-2.59;76.98;101059.70;1743365;82;21191;-59
2020/12/22 04:39:15;;;;;;;12.33;8.18;;;;;;;-2.62;76.59;101054.65;1662240;83;21295;-59
2020/12/22 04:41:47;;;;;;;11.60;7.97;;;;;;;-2.62;76.83;101052.47;1729062;82;21162;-59
2020/12/22 04:44:18;;;;;;;13.13;8.05;;;;;;;-2.61;76.96;101055.48;1681406;84;21157;-59
2020/12/22 04:46:50;;;;;;;12.07;8.93;;;;;;;-2.64;76.94;101048.64;1655487;85;21322;-59
2020/12/22 04:49:20;;;;;;;12.37;8.80;;;;;;;-2.63;76.94;101044.16;1685911;84;21176;-59
2020/12/22 04:51:52;;;;;;;11.20;8.33;;;;;;;-2.66;76.78;101038.62;1642500;86;21165;-59
2020/12/22 04:54:21;;;;;;;11.08;7.83;;;;;;;-2.67;76.79;101041.45;1707037;82;21154;-59
2020/12/22 04:56:50;;;;;;;12.33;8.28;;;;;;;-2.72;76.97;101037.91;1711783;82;21154;-59
2020/12/22 04:59:18;;;;;;;11.63;8.25;;;;;;;-2.74;76.89;101035.91;1689449;84;21145;-60
2020/12/22 05:01:45;;;;;;;13.38;8.43;;;;;;;-2.69;77.10;101044.75;1709834;82;21671;-60
2020/12/22 05:04:12;;;;;;;13.43;9.10;;;;;;;-2.71;77.04;101039.59;1736753;82;21867;-60
2020/12/22 05:06:39;;;;;;;11.95;8.30;;;;;;;-2.71;76.99;101042.27;1737919;82;21161;-59
2020/12/22 05:09:07;;;;;;;12.82;8.00;;;;;;;-2.69;77.05;101046.09;1735939;82;21147;-60
2020/12/22 05:11:35;;;;;;;10.58;7.22;;;;;;;-2.79;77.24;101044.02;1731247;82;21118;-59
2020/12/22 05:14:04;;;;;;;12.65;7.55;;;;;;;-2.82;77.00;101043.83;1713171;82;21281;-59
2020/12/22 05:16:37;;;;;;;14.23;9.83;;;;;;;-2.88;77.11;101037.80;1714435;82;21926;-59
2020/12/22 05:19:04;;;;;;;11.83;7.60;;;;;;;-2.84;77.35;101041.83;1734914;82;21134;-59
2020/12/22 05:21:35;;;;;;;13.22;8.78;;;;;;;-2.87;76.94;101042.11;1730188;82;21195;-60
2020/12/22 05:24:06;;;;;;;22.60;14.35;;;;;;;-2.83;77.11;101040.81;1689184;84;21162;-59
2020/12/22 05:26:34;;;;;;;15.10;9.63;;;;;;;-2.84;77.31;101045.83;1672105;82;21146;-59
2020/12/22 05:29:15;;;;;;;13.38;8.90;;;;;;;-2.85;77.18;101037.48;1717965;82;21169;-59
2020/12/22 05:31:47;;;;;;;11.60;7.70;;;;;;;-2.81;77.29;101041.52;1708052;82;21574;-59
2020/12/22 05:34:15;;;;;;;12.95;8.45;;;;;;;-2.81;77.18;101042.84;1709230;82;21449;-60
2020/12/22 05:36:44;;;;;;;12.65;8.55;;;;;;;-2.80;77.02;101040.50;1734871;82;21758;-59
2020/12/22 05:39:16;;;;;;;13.93;7.60;;;;;;;-2.83;77.25;101037.31;1699286;84;21586;-59
2020/12/22 05:41:43;;;;;;;12.30;7.17;;;;;;;-2.81;77.25;101036.67;1743303;81;21189;-59
2020/12/22 05:44:11;;;;;;;9.98;6.95;;;;;;;-2.80;77.38;101035.70;1738054;82;21145;-59
2020/12/22 05:46:38;;;;;;;11.97;7.45;;;;;;;-2.83;77.19;101035.48;1723797;82;21311;-60
2020/12/22 05:49:09;;;;;;;13.43;6.58;;;;;;;-2.79;77.19;101042.67;1685551;85;21194;-60
2020/12/22 05:51:38;;;;;;;11.15;7.60;;;;;;;-2.79;77.08;101045.34;1696542;83;21317;-59
2020/12/22 05:56:30;;;;;;;12.07;6.28;;;;;;;-2.74;76.75;101039.06;1754790;79;23021;-59
2020/12/22 05:58:57;;;;;;;10.40;6.70;;;;;;;-2.81;76.70;101030.86;1718704;83;21157;-60
2020/12/22 06:01:34;;;;;;;11.68;7.17;;;;;;;-2.80;76.71;101040.50;1720380;83;21158;-59
2020/12/22 06:04:03;;;;;;;11.38;7.50;;;;;;;-2.83;76.60;101038.64;1718107;83;21173;-60
2020/12/22 06:06:32;;;;;;;9.88;6.65;;;;;;;-2.84;76.42;101041.83;1650777;86;21191;-59
2020/12/22 06:08:59;;;;;;;8.90;6.25;;;;;;;-2.80;76.44;101041.03;1662186;86;21146;-58
2020/12/22 06:11:28;;;;;;;9.85;6.47;;;;;;;-2.88;76.02;101043.61;1641245;85;21172;-58
2020/12/22 06:13:55;;;;;;;11.78;7.03;;;;;;;-2.87;76.21;101041.30;1629971;86;21193;-59
2020/12/22 06:16:22;;;;;;;9.65;5.80;;;;;;;-2.91;76.10;101037.27;1649878;87;21234;-59
2020/12/22 06:18:51;;;;;;;10.15;6.67;;;;;;;-2.90;76.25;101042.42;1684116;84;21166;-59
2020/12/22 06:21:19;;;;;;;10.45;7.22;;;;;;;-2.88;76.14;101033.80;1677961;84;21387;-59
2020/12/22 06:23:50;;;;;;;12.58;8.48;;;;;;;-2.92;76.12;101039.09;1677886;85;21145;-59
2020/12/22 06:26:18;;;;;;;17.77;10.20;;;;;;;-2.90;76.24;101032.25;1678116;85;21196;-59
2020/12/22 06:28:45;;;;;;;11.63;8.00;;;;;;;-2.89;76.48;101029.94;1678273;85;21606;-59
2020/12/22 06:31:21;;;;;;;10.28;7.28;;;;;;;-2.84;76.34;101036.99;1678017;85;21196;-59
2020/12/22 06:33:50;;;;;;;13.48;9.03;;;;;;;-2.82;76.18;101027.84;1627727;85;21234;-59
2020/12/22 06:36:19;;;;;;;13.25;9.00;;;;;;;-2.88;76.31;101031.13;1676626;85;21184;-59
2020/12/22 06:39:01;;;;;;;10.03;7.40;;;;;;;-2.84;76.53;101025.84;1678137;85;21168;-59
2020/12/22 06:41:39;;;;;;;11.20;7.87;;;;;;;-2.79;76.22;101029.35;1678119;85;21497;-59
2020/12/22 06:44:27;;;;;;;12.15;9.05;;;;;;;-2.81;76.38;101029.52;1660107;84;21325;-59
2020/12/22 06:46:57;;;;;;;10.00;7.37;;;;;;;-2.83;76.42;101023.49;1649287;87;21221;-59
2020/12/22 06:49:52;;;;;;;14.85;10.78;;;;;;;-2.85;76.11;101028.16;1649161;87;21600;-59
2020/12/22 06:52:40;;;;;;;11.03;8.40;;;;;;;-2.87;76.33;101031.45;1649258;87;21221;-59
2020/12/22 06:55:11;;;;;;;13.05;8.45;;;;;;;-2.89;76.35;101028.61;1665026;84;21204;-59
2020/12/22 06:57:48;;;;;;;27.25;14.73;;;;;;;-2.89;76.48;101016.62;1663714;86;21181;-59
2020/12/22 07:00:34;;;;;;;80.62;30.12;;;;;;;-2.94;76.59;101017.59;1663694;86;21205;-59
2020/12/22 07:03:16;;;;;;;10.70;7.60;;;;;;;-2.91;76.52;101011.95;1686940;84;21154;-59
2020/12/22 07:05:48;;;;;;;10.53;7.80;;;;;;;-2.92;76.82;101012.93;1679726;85;21638;-59
2020/12/22 07:08:17;;;;;;;9.90;6.83;;;;;;;-2.91;76.50;101010.13;1679338;85;21178;-59
2020/12/22 07:10:47;;;;;;;11.90;8.10;;;;;;;-2.87;76.45;101015.46;1634931;88;21161;-59
2020/12/22 07:13:16;;;;;;;10.68;7.45;;;;;;;-2.84;76.14;101011.67;1691779;84;21145;-59
2020/12/22 07:15:48;;;;;;;11.30;7.85;;;;;;;-2.81;75.92;101004.70;1661685;85;21110;-59
2020/12/22 07:18:29;;;;;;;11.08;7.20;;;;;;;-2.79;76.08;101004.03;1681054;84;21748;-59
2020/12/22 07:20:57;;;;;;;11.00;7.50;;;;;;;-2.79;76.21;100996.04;1681507;84;21197;-59
2020/12/22 07:23:24;;;;;;;12.73;8.18;;;;;;;-2.75;76.43;100996.91;1660065;85;21134;-59
2020/12/22 07:25:51;;;;;;;10.70;7.58;;;;;;;-2.72;76.49;100995.27;1679344;85;21175;-58
2020/12/22 07:28:19;;;;;;;10.32;7.50;;;;;;;-2.69;76.68;100994.95;1635205;88;21995;-59
2020/12/22 07:30:46;;;;;;;9.83;7.28;;;;;;;-2.67;76.49;100984.98;1679501;85;21174;-59
2020/12/22 07:33:14;;;;;;;10.60;7.40;;;;;;;-2.67;76.36;100990.31;1634978;88;21194;-59
2020/12/22 07:35:42;;;;;;;10.32;7.80;;;;;;;-2.62;76.43;100990.66;1697094;84;21211;-59
2020/12/22 07:38:10;;;;;;;11.60;7.53;;;;;;;-2.58;76.42;100988.03;1666164;85;21293;-59
2020/12/22 07:40:39;;;;;;;11.03;7.78;;;;;;;-2.56;76.37;100976.73;1659845;85;21884;-59
2020/12/22 07:43:12;;;;;;;12.35;8.25;;;;;;;-2.52;76.15;100982.09;1635136;87;21161;-59
2020/12/22 07:45:50;;;;;;;11.40;7.92;;;;;;;-2.54;76.11;100976.06;1680081;84;21207;-59
2020/12/22 07:48:18;;;;;;;12.35;8.50;;;;;;;-2.45;76.10;100971.63;1683835;84;21312;-59
2020/12/22 07:50:52;;;;;;;9.75;7.65;;;;;;;-2.43;75.99;100976.79;1709154;83;21296;-59
2020/12/22 07:53:19;;;;;;;9.50;7.20;;;;;;;-2.42;75.69;100977.98;1707254;83;21146;-59
2020/12/22 07:55:47;;;;;;;12.93;8.63;;;;;;;-2.38;75.85;100972.67;1696412;83;21217;-59
2020/12/22 07:58:15;;;;;;;10.48;7.33;;;;;;;-2.35;75.67;100971.02;1704071;83;21188;-59
2020/12/22 08:00:42;;;;;;;11.90;7.95;;;;;;;-2.33;75.71;100977.50;1730299;83;21315;-59
2020/12/22 08:03:16;;;;;;;10.95;7.53;;;;;;;-2.29;75.92;100978.86;1707598;83;21118;-59
2020/12/22 08:06:00;;;;;;;11.97;8.40;;;;;;;-2.25;76.00;100982.89;1674787;84;21569;-59
2020/12/22 08:08:27;;;;;;;9.73;6.85;;;;;;;-2.21;75.86;100977.58;1666186;86;21134;-59
2020/12/22 08:10:55;;;;;;;11.48;7.50;;;;;;;-2.14;75.76;100979.95;1666006;86;21230;-59
2020/12/22 08:13:25;;;;;;;11.30;7.87;;;;;;;-2.09;75.59;100974.98;1685964;84;21290;-59
2020/12/22 08:15:53;;;;;;;11.35;7.97;;;;;;;-2.11;75.32;100972.46;1695184;84;21192;-59
2020/12/22 08:18:20;;;;;;;11.40;7.35;;;;;;;-2.09;75.29;100970.98;1695340;84;21196;-59
2020/12/22 08:20:47;;;;;;;12.75;7.60;;;;;;;-2.10;75.17;100970.64;1695342;84;21206;-59
2020/12/22 08:23:17;;;;;;;12.43;7.78;;;;;;;-2.10;75.35;100970.64;1695636;84;21192;-59
2020/12/22 08:25:48;;;;;;;12.30;8.20;;;;;;;-2.08;75.38;100968.63;1695290;84;21178;-59
2020/12/22 08:28:25;;;;;;;12.00;7.80;;;;;;;-2.06;75.52;100960.83;1695603;84;21525;-59
2020/12/22 08:30:54;;;;;;;10.28;6.20;;;;;;;-2.02;75.63;100964.81;1669713;84;21184;-59
2020/12/22 08:33:22;;;;;;;11.00;7.17;;;;;;;-2.06;75.15;100957.31;1664440;86;21316;-59
2020/12/22 08:35:50;;;;;;;9.63;6.62;;;;;;;-2.05;75.36;100966.48;1695350;84;21560;-59
2020/12/22 08:38:25;;;;;;;8.68;5.92;;;;;;;-2.01;75.40;100954.98;1695192;84;21297;-58
2020/12/22 08:40:54;;;;;;;7.83;5.30;;;;;;;-1.98;75.05;100950.66;1647696;86;21215;-59
2020/12/22 08:43:23;;;;;;;8.03;5.33;;;;;;;-2.01;74.86;100949.64;1682336;85;21194;-59
2020/12/22 08:45:51;;;;;;;8.60;5.15;;;;;;;-2.08;74.39;100952.13;1682414;85;21173;-59
2020/12/22 08:48:18;;;;;;;9.00;4.78;;;;;;;-2.07;74.47;100946.30;1682542;85;21708;-59
2020/12/22 08:50:51;;;;;;;7.05;4.45;;;;;;;-2.13;74.54;100937.12;1666022;86;21184;-59
2020/12/22 08:53:21;;;;;;;7.03;4.83;;;;;;;-2.12;74.66;100939.26;1662600;86;21165;-59
2020/12/22 08:55:48;;;;;;;8.53;4.97;;;;;;;-2.13;74.40;100941.61;1662660;86;21217;-59
2020/12/22 08:58:15;;;;;;;8.30;5.60;;;;;;;-2.09;74.55;100938.44;1692405;84;21205;-60
2020/12/22 09:00:44;;;;;;;7.60;5.53;;;;;;;-2.03;74.97;100935.64;1666602;85;21734;-60
2020/12/22 09:03:11;;;;;;;8.43;5.90;;;;;;;-1.97;74.94;100930.98;1692324;85;21754;-59
2020/12/22 09:05:39;;;;;;;10.72;5.97;;;;;;;-1.93;74.90;100926.16;1692312;85;21197;-60
2020/12/22 09:08:07;;;;;;;8.80;5.75;;;;;;;-1.88;74.81;100927.86;1622095;85;21189;-59
2020/12/22 09:10:34;;;;;;;8.60;5.78;;;;;;;-1.86;74.42;100924.02;1711823;83;21200;-60
2020/12/22 09:13:03;;;;;;;9.15;5.25;;;;;;;-1.87;74.29;100921.00;1686698;85;21165;-60
2020/12/22 09:15:31;;;;;;;7.87;5.08;;;;;;;-1.86;74.31;100917.84;1688815;85;21161;-60
2020/12/22 09:17:58;;;;;;;6.50;4.12;;;;;;;-1.80;74.20;100914.01;1656880;86;21178;-60
2020/12/22 09:20:25;;;;;;;8.45;4.60;;;;;;;-1.82;73.63;100904.02;1722722;82;21133;-59
2020/12/22 09:22:54;;;;;;;7.90;5.08;;;;;;;-1.84;73.40;100900.66;1722369;83;21295;-60
2020/12/22 09:25:22;;;;;;;8.65;5.78;;;;;;;-1.85;73.56;100893.67;1684267;85;21184;-60
2020/12/22 09:27:49;;;;;;;8.50;5.75;;;;;;;-1.83;73.79;100891.66;1719611;83;21149;-60
2020/12/22 09:30:17;;;;;;;8.58;6.30;;;;;;;-1.76;73.77;100892.67;1651390;83;21328;-60
2020/12/22 09:32:47;;;;;;;11.15;6.97;;;;;;;-1.72;73.96;100895.34;1706656;83;21153;-60
2020/12/22 09:35:14;;;;;;;9.33;6.03;;;;;;;-1.71;73.64;100887.69;1656540;86;21214;-60
2020/12/22 09:37:41;;;;;;;10.10;6.37;;;;;;;-1.65;73.49;100882.17;1692444;85;21201;-60
2020/12/22 09:40:08;;;;;;;9.03;6.33;;;;;;;-1.55;73.73;100882.84;1665699;85;21173;-59
2020/12/22 09:42:36;;;;;;;9.35;6.60;;;;;;;-1.56;73.68;100877.20;1700149;83;21712;-60
2020/12/22 09:45:03;;;;;;;9.88;6.53;;;;;;;-1.56;73.20;100871.33;1722751;83;21593;-59
2020/12/22 09:47:30;;;;;;;9.28;6.62;;;;;;;-1.54;73.56;100876.02;1722754;83;21613;-60
2020/12/22 09:49:57;;;;;;;10.75;6.85;;;;;;;-1.53;73.11;100871.52;1696211;83;21169;-60
2020/12/22 09:52:25;;;;;;;8.70;5.80;;;;;;;-1.52;73.21;100874.50;1722738;83;21698;-59
2020/12/22 09:54:52;;;;;;;8.95;5.90;;;;;;;-1.50;73.31;100869.84;1694293;83;21189;-59
2020/12/22 09:57:19;;;;;;;11.05;5.55;;;;;;;-1.46;73.05;100867.17;1693063;83;21611;-59
2020/12/22 09:59:48;;;;;;;9.30;6.10;;;;;;;-1.41;72.99;100857.30;1692224;85;21158;-59
2020/12/22 10:02:16;;;;;;;9.75;6.47;;;;;;;-1.41;72.93;100856.81;1655985;86;21971;-58
2020/12/22 10:04:43;;;;;;;8.58;5.60;;;;;;;-1.37;72.91;100845.29;1687960;83;21282;-59
2020/12/22 10:07:11;;;;;;;8.70;5.30;;;;;;;-1.36;72.52;100846.47;1673500;83;21177;-59
2020/12/22 10:09:38;;;;;;;7.58;5.40;;;;;;;-1.36;72.43;100838.95;1722617;83;21185;-59
2020/12/22 10:12:05;;;;;;;7.50;5.17;;;;;;;-1.33;72.63;100833.27;1673295;83;21329;-59
2020/12/22 10:14:36;;;;;;;8.38;6.28;;;;;;;-1.28;72.75;100828.27;1696208;83;21153;-59
2020/12/22 10:17:02;;;;;;;8.20;5.62;;;;;;;-1.25;72.46;100823.92;1674249;83;21161;-59
2020/12/22 10:19:30;;;;;;;10.85;6.55;;;;;;;-1.20;72.69;100824.23;1694921;83;21140;-59
2020/12/22 10:21:57;;;;;;;9.70;6.58;;;;;;;-1.18;72.49;100820.91;1671437;83;21178;-59
2020/12/22 10:24:26;;;;;;;9.60;5.95;;;;;;;-1.13;72.39;100814.53;1667070;85;21148;-59
2020/12/22 10:26:53;;;;;;;9.40;6.70;;;;;;;-1.11;72.21;100814.71;1693891;83;21231;-59
2020/12/22 10:29:21;;;;;;;9.30;5.83;;;;;;;-1.10;72.53;100814.22;1693865;85;21197;-59
2020/12/22 10:31:48;;;;;;;9.80;6.60;;;;;;;-1.06;71.75;100807.00;1694681;83;21194;-59
2020/12/22 10:34:17;;;;;;;10.45;6.42;;;;;;;-1.12;72.12;100813.53;1722742;83;21302;-59
2020/12/22 10:36:45;;;;;;;9.88;6.65;;;;;;;-1.13;72.20;100802.50;1722562;83;21352;-59
2020/12/22 10:39:12;;;;;;;9.85;6.20;;;;;;;-1.10;71.84;100807.00;1722680;83;21348;-59
2020/12/22 10:41:40;;;;;;;9.28;6.05;;;;;;;-1.11;72.36;100807.20;1720604;83;21588;-59
2020/12/22 10:44:07;;;;;;;8.28;5.95;;;;;;;-1.12;72.17;100803.69;1722811;83;21573;-59
2020/12/22 10:46:34;;;;;;;16.15;10.20;;;;;;;-1.09;72.30;100797.99;1722857;83;21609;-59
2020/12/22 10:49:02;;;;;;;11.12;8.05;;;;;;;-1.08;72.48;100801.50;1717022;83;21157;-59
2020/12/22 10:51:31;;;;;;;8.83;6.20;;;;;;;-1.11;72.72;100801.35;1692479;85;21323;-59
2020/12/22 10:53:58;;;;;;;11.78;9.65;;;;;;;-1.04;72.74;100794.31;1656602;86;21791;-60
2020/12/22 10:56:25;;;;;;;10.38;7.75;;;;;;;-1.02;72.83;100798.98;1687972;84;21637;-59
2020/12/22 10:58:53;;;;;;;9.93;7.15;;;;;;;-0.95;72.51;100788.42;1679267;85;21613;-59
2020/12/22 11:01:20;;;;;;;10.28;7.50;;;;;;;-0.94;72.61;100778.08;1675131;85;21262;-60
2020/12/22 11:03:48;;;;;;;26.82;15.18;;;;;;;-0.95;72.84;100783.58;1638619;86;21158;-59
2020/12/22 11:08:46;;;;;;;27.10;16.62;;;;;;;-0.93;72.94;100785.09;1693214;84;21554;-60
2020/12/22 11:11:14;;;;;;;21.50;12.25;;;;;;;-0.89;73.09;100774.40;1709097;84;21673;-59
2020/12/22 11:13:41;;;;;;;13.03;9.80;;;;;;;-0.90;73.04;100768.72;1707245;84;21574;-59
2020/12/22 11:18:46;;;;;;;11.43;9.30;;;;;;;-0.96;73.13;100753.38;1764240;79;28880;-57
2020/12/22 11:21:13;;;;;;;10.53;7.92;;;;;;;-0.88;72.62;100749.31;1732492;81;21148;-57
2020/12/22 11:23:44;;;;;;;11.10;8.28;;;;;;;-0.76;72.32;100742.59;1649467;87;21667;-58
2020/12/22 11:26:20;;;;;;;36.48;17.32;;;;;;;-0.86;72.61;100745.98;1654575;87;21177;-57
2020/12/22 11:28:47;;;;;;;26.45;13.55;;;;;;;-0.92;72.90;100745.31;1654574;87;21168;-58
2020/12/22 11:31:15;;;;;;;44.60;19.00;;;;;;;-0.91;73.07;100746.15;1654622;85;21341;-58